createdAt,value
2019-02-20T00:00:27.098Z,90.00
2019-02-20T00:02:55.992Z,89.68
2019-02-20T00:05:24.806Z,90.48
2019-02-20T00:07:53.618Z,88.49
2019-02-20T00:10:22.660Z,88.90
2019-02-20T00:12:51.464Z,90.85
2019-02-20T00:15:20.295Z,91.86
2019-02-20T00:17:49.176Z,93.07
2019-02-20T00:20:17.989Z,93.71
2019-02-20T00:22:46.790Z,94.08
2019-02-20T00:25:15.755Z,94.18
2019-02-20T00:27:44.575Z,93.69
2019-02-20T00:30:13.478Z,93.75
2019-02-20T00:32:42.433Z,93.64
2019-02-20T00:35:11.245Z,93.63
2019-02-20T00:37:40.053Z,93.45
2019-02-20T00:40:11.031Z,93.02
2019-02-20T00:42:39.835Z,92.55
2019-02-20T00:45:31.172Z,93.01
2019-02-20T00:48:01.539Z,93.11
2019-02-20T00:50:31.927Z,92.73
2019-02-20T00:53:05.140Z,92.09
2019-02-20T00:55:33.992Z,92.25
2019-02-20T00:58:02.816Z,92.78
2019-02-20T01:00:31.665Z,92.88
2019-02-20T01:03:00.474Z,92.62
2019-02-20T01:05:29.276Z,92.77
2019-02-20T01:07:58.137Z,92.87
2019-02-20T01:10:26.951Z,92.57
2019-02-20T01:12:55.773Z,92.37
2019-02-20T01:15:24.624Z,92.27
2019-02-20T01:17:53.581Z,93.02
2019-02-20T01:20:22.388Z,93.06
2019-02-20T01:22:59.618Z,92.99
2019-02-20T01:25:21.722Z,93.30
2019-02-20T01:27:50.449Z,93.19
2019-02-20T01:30:19.339Z,92.75
2019-02-20T01:32:48.063Z,92.84
2019-02-20T01:35:16.796Z,92.65
2019-02-20T01:37:45.988Z,93.09
2019-02-20T01:40:14.716Z,93.21
2019-02-20T01:42:43.441Z,93.78
2019-02-20T01:45:12.863Z,94.15
2019-02-20T01:47:41.583Z,94.02
2019-02-20T01:50:10.406Z,92.16
2019-02-20T01:52:39.288Z,92.09
2019-02-20T01:55:09.032Z,93.30
2019-02-20T01:57:37.758Z,94.49
2019-02-20T02:00:09.457Z,95.07
2019-02-20T02:02:38.196Z,95.18
2019-02-20T02:05:14.765Z,94.31
2019-02-20T02:07:37.797Z,94.23
2019-02-20T02:10:08.521Z,94.50
2019-02-20T02:12:37.245Z,94.61
2019-02-20T02:15:07.829Z,95.33
2019-02-20T02:17:36.562Z,95.63
2019-02-20T02:20:07.838Z,95.59
2019-02-20T02:22:36.711Z,95.82
2019-02-20T02:25:06.535Z,96.41
2019-02-20T02:27:35.264Z,96.60
2019-02-20T02:30:05.610Z,96.97
2019-02-20T02:32:34.323Z,96.79
2019-02-20T02:35:03.041Z,96.74
2019-02-20T02:37:32.260Z,96.79
2019-02-20T02:40:00.986Z,96.92
2019-02-20T02:42:29.713Z,96.88
2019-02-20T02:44:58.821Z,96.75
2019-02-20T02:47:27.548Z,97.15
2019-02-20T02:49:56.274Z,97.41
2019-02-20T02:52:25.031Z,97.61
2019-02-20T02:54:53.759Z,97.74
2019-02-20T02:57:22.479Z,97.17
2019-02-20T02:59:51.248Z,96.81
2019-02-20T03:02:19.992Z,96.50
2019-02-20T03:04:48.709Z,96.74
2019-02-20T03:07:17.623Z,96.62
2019-02-20T03:09:46.712Z,96.30
2019-02-20T03:12:15.435Z,96.39
2019-02-20T03:14:44.208Z,96.54
2019-02-20T03:17:12.932Z,97.12
2019-02-20T03:19:41.662Z,97.27
2019-02-20T03:22:11.097Z,97.01
2019-02-20T03:24:39.810Z,96.84
2019-02-20T03:27:08.538Z,96.93
2019-02-20T03:29:37.402Z,97.22
2019-02-20T03:32:06.131Z,97.35
2019-02-20T03:34:34.861Z,97.51
2019-02-20T03:37:04.137Z,97.78
2019-02-20T03:39:32.954Z,98.01
2019-02-20T03:42:01.705Z,97.94
2019-02-20T03:44:30.590Z,97.84
2019-02-20T03:46:59.315Z,97.86
2019-02-20T03:49:28.053Z,97.66
2019-02-20T03:51:56.811Z,97.42
2019-02-20T03:54:25.586Z,97.44
2019-02-20T03:56:54.351Z,97.46
2019-02-20T03:59:23.162Z,97.39
2019-02-20T04:01:51.894Z,97.39
2019-02-20T04:04:20.611Z,97.39
2019-02-20T04:06:49.769Z,97.29
2019-02-20T04:09:18.503Z,97.01
2019-02-20T04:11:47.242Z,96.57
2019-02-20T04:14:16.344Z,94.99
2019-02-20T04:16:45.068Z,95.14
2019-02-20T04:19:13.785Z,94.84
2019-02-20T04:21:42.670Z,95.70
2019-02-20T04:24:11.406Z,96.25
2019-02-20T04:26:40.146Z,96.39
2019-02-20T04:29:09.052Z,96.45
2019-02-20T04:31:37.783Z,96.47
2019-02-20T04:34:06.504Z,95.49
2019-02-20T04:36:35.387Z,91.95
2019-02-20T04:39:04.918Z,90.84
2019-02-20T04:41:33.665Z,90.69
2019-02-20T04:44:02.508Z,91.56
2019-02-20T04:46:31.247Z,92.71
2019-02-20T04:48:59.981Z,93.99
2019-02-20T04:51:28.873Z,93.59
2019-02-20T04:53:57.589Z,93.42
2019-02-20T04:56:26.327Z,94.63
2019-02-20T04:58:59.953Z,95.97
2019-02-20T05:01:28.796Z,96.83
2019-02-20T05:03:58.986Z,96.79
2019-02-20T05:06:27.870Z,96.47
2019-02-20T05:08:56.619Z,96.46
2019-02-20T05:11:25.345Z,96.64
2019-02-20T05:13:54.311Z,96.98
2019-02-20T05:16:23.043Z,97.45
2019-02-20T05:18:51.781Z,97.77
2019-02-20T05:21:20.559Z,98.34
2019-02-20T05:23:49.289Z,98.90
2019-02-20T05:26:18.033Z,99.17
2019-02-20T05:28:46.909Z,99.32
2019-02-20T05:31:16.537Z,99.50
2019-02-20T05:33:45.552Z,99.43
2019-02-20T05:36:14.426Z,99.11
2019-02-20T05:38:43.156Z,98.92
2019-02-20T05:41:11.889Z,98.84
2019-02-20T05:43:40.775Z,98.45
2019-02-20T05:46:09.505Z,98.14
2019-02-20T05:48:38.233Z,98.32
2019-02-20T05:51:07.127Z,97.82
2019-02-20T05:53:35.859Z,97.31
2019-02-20T05:56:04.591Z,96.74
2019-02-20T05:58:33.367Z,95.60
2019-02-20T06:01:02.096Z,95.41
2019-02-20T06:03:30.827Z,95.89
2019-02-20T06:05:59.612Z,95.97
2019-02-20T06:08:28.354Z,95.75
2019-02-20T06:10:57.081Z,95.69
2019-02-20T06:13:25.883Z,95.10
2019-02-20T06:15:54.603Z,94.59
2019-02-20T06:18:23.352Z,94.67
2019-02-20T06:20:52.551Z,94.45
2019-02-20T06:23:21.279Z,94.29
2019-02-20T06:25:50.020Z,94.36
2019-02-20T06:28:18.857Z,93.82
2019-02-20T06:30:47.585Z,93.33
2019-02-20T06:33:16.334Z,93.77
2019-02-20T06:35:45.209Z,91.60
2019-02-20T06:38:13.940Z,90.58
2019-02-20T06:40:42.739Z,90.31
2019-02-20T06:43:11.554Z,89.13
2019-02-20T06:45:40.277Z,89.67
2019-02-20T06:48:09.018Z,88.18
2019-02-20T06:50:38.205Z,86.05
2019-02-20T06:53:06.932Z,85.64
2019-02-20T06:55:35.658Z,84.92
2019-02-20T06:58:04.448Z,84.44
2019-02-20T07:00:33.175Z,83.41
2019-02-20T07:03:01.932Z,85.37
2019-02-20T07:05:38.177Z,86.17
2019-02-20T07:08:21.589Z,85.32
2019-02-20T07:11:05.344Z,86.20
2019-02-20T07:13:53.382Z,84.29
2019-02-20T07:16:34.002Z,83.60
2019-02-20T07:19:05.638Z,83.13
2019-02-20T07:21:42.943Z,83.63
2019-02-20T07:24:26.732Z,83.93
2019-02-20T07:27:17.581Z,83.53
2019-02-20T07:29:51.953Z,81.99
2019-02-20T07:32:20.849Z,81.44
2019-02-20T07:34:49.608Z,78.47
2019-02-20T07:37:18.300Z,79.46
2019-02-20T07:39:47.088Z,77.45
2019-02-20T07:42:15.827Z,77.33
2019-02-20T07:44:44.954Z,77.22
2019-02-20T07:47:13.773Z,76.02
2019-02-20T07:49:42.515Z,75.34
2019-02-20T07:52:11.233Z,75.27
2019-02-20T07:54:40.109Z,74.32
2019-02-20T07:57:08.831Z,73.60
2019-02-20T07:59:37.572Z,73.34
2019-02-20T08:02:06.465Z,70.75
2019-02-20T08:04:35.205Z,72.23
2019-02-20T08:07:03.932Z,69.99
2019-02-20T08:09:32.975Z,67.68
2019-02-20T08:12:01.725Z,71.07
2019-02-20T08:14:30.602Z,67.56
2019-02-20T08:16:59.398Z,67.68
2019-02-20T08:19:28.134Z,68.27
2019-02-20T08:21:56.871Z,65.90
2019-02-20T08:24:25.902Z,66.17
2019-02-20T08:26:54.625Z,67.26
2019-02-20T08:29:23.372Z,64.74
2019-02-20T08:31:53.890Z,65.47
2019-02-20T08:34:22.844Z,65.85
2019-02-20T08:36:51.561Z,65.54
2019-02-20T08:39:20.448Z,64.67
2019-02-20T08:41:49.199Z,66.01
2019-02-20T08:44:17.930Z,63.52
2019-02-20T08:46:46.703Z,63.62
2019-02-20T08:49:15.444Z,62.61
2019-02-20T08:51:44.175Z,60.86
2019-02-20T08:54:13.058Z,60.79
2019-02-20T08:56:41.791Z,60.05
2019-02-20T08:59:10.524Z,60.26
2019-02-20T09:01:39.425Z,60.91
2019-02-20T09:04:08.155Z,59.68
2019-02-20T09:06:36.898Z,59.52
2019-02-20T09:09:06.601Z,59.86
2019-02-20T09:11:35.342Z,60.44
2019-02-20T09:14:04.078Z,59.74
2019-02-20T09:16:32.864Z,58.71
2019-02-20T09:19:01.602Z,60.47
2019-02-20T09:21:30.339Z,59.35
2019-02-20T09:23:59.393Z,59.22
2019-02-20T09:26:28.165Z,58.68
2019-02-20T09:28:56.995Z,57.81
2019-02-20T09:31:25.865Z,57.74
2019-02-20T09:33:54.603Z,55.35
2019-02-20T09:36:23.338Z,56.01
2019-02-20T09:38:52.156Z,53.91
2019-02-20T09:41:20.887Z,53.11
2019-02-20T09:43:49.627Z,52.55
2019-02-20T09:46:18.516Z,50.42
2019-02-20T09:48:47.246Z,46.93
2019-02-20T09:51:15.971Z,48.65
2019-02-20T09:53:44.774Z,48.48
2019-02-20T09:56:16.043Z,47.27
2019-02-20T09:58:43.968Z,47.44
2019-02-20T10:01:12.997Z,46.60
2019-02-20T10:03:41.762Z,44.31
2019-02-20T10:06:10.487Z,43.73
2019-02-20T10:08:39.251Z,42.85
2019-02-20T10:11:07.993Z,40.70
2019-02-20T10:13:36.730Z,43.21
2019-02-20T10:16:05.611Z,41.26
2019-02-20T10:18:34.362Z,41.91
2019-02-20T10:21:03.084Z,40.41
2019-02-20T10:23:31.971Z,41.57
2019-02-20T10:26:01.317Z,39.96
2019-02-20T10:28:30.217Z,39.82
2019-02-20T10:30:59.093Z,39.30
2019-02-20T10:33:27.975Z,41.07
2019-02-20T10:35:56.707Z,36.17
2019-02-20T10:38:25.676Z,36.20
2019-02-20T10:40:54.413Z,36.47
2019-02-20T10:43:23.151Z,36.09
2019-02-20T10:45:52.386Z,33.70
2019-02-20T10:48:21.117Z,34.10
2019-02-20T10:50:49.884Z,35.45
2019-02-20T10:53:18.762Z,33.14
2019-02-20T10:55:50.669Z,33.19
2019-02-20T10:58:19.406Z,32.11
2019-02-20T11:00:48.246Z,31.87
2019-02-20T11:03:16.977Z,31.82
2019-02-20T11:05:45.727Z,31.57
2019-02-20T11:08:14.883Z,30.21
2019-02-20T11:10:43.613Z,32.32
2019-02-20T11:13:12.350Z,28.80
2019-02-20T11:15:41.128Z,29.40
2019-02-20T11:18:09.865Z,29.39
2019-02-20T11:20:38.583Z,30.45
2019-02-20T11:23:07.468Z,30.01
2019-02-20T11:25:36.208Z,28.32
2019-02-20T11:28:04.955Z,30.04
2019-02-20T11:30:33.829Z,29.30
2019-02-20T11:33:03.444Z,28.39
2019-02-20T11:35:32.415Z,26.80
2019-02-20T11:38:01.311Z,28.23
2019-02-20T11:40:30.033Z,28.31
2019-02-20T11:42:58.767Z,25.16
2019-02-20T11:45:27.661Z,25.72
2019-02-20T11:47:56.383Z,25.07
2019-02-20T11:50:25.118Z,25.73
2019-02-20T11:52:53.984Z,24.35
2019-02-20T11:55:22.745Z,25.85
2019-02-20T11:57:51.489Z,25.45
2019-02-20T12:00:20.424Z,25.22
2019-02-20T12:02:49.157Z,24.77
2019-02-20T12:05:17.884Z,25.04
2019-02-20T12:07:46.665Z,26.06
2019-02-20T12:10:17.751Z,25.83
2019-02-20T12:12:46.478Z,25.56
2019-02-20T12:15:15.247Z,25.54
2019-02-20T12:17:43.988Z,26.04
2019-02-20T12:20:12.912Z,25.31
2019-02-20T12:22:41.719Z,25.58
2019-02-20T12:25:11.025Z,25.48
2019-02-20T12:27:39.743Z,26.09
2019-02-20T12:30:12.633Z,24.84
2019-02-20T12:32:41.656Z,26.60
2019-02-20T12:35:10.487Z,26.17
2019-02-20T12:37:39.467Z,27.09
2019-02-20T12:40:09.683Z,25.68
2019-02-20T12:42:38.467Z,25.77
2019-02-20T12:45:10.512Z,26.18
2019-02-20T12:47:39.239Z,26.46
2019-02-20T12:50:10.462Z,26.26
2019-02-20T12:52:39.348Z,26.16
2019-02-20T12:55:09.076Z,26.11
2019-02-20T12:57:37.798Z,25.67
2019-02-20T13:00:09.821Z,25.25
2019-02-20T13:02:38.559Z,26.19
2019-02-20T13:05:08.083Z,25.91
2019-02-20T13:07:36.883Z,24.72
2019-02-20T13:10:06.012Z,24.90
2019-02-20T13:12:34.744Z,24.39
2019-02-20T13:15:03.963Z,25.87
2019-02-20T13:17:32.721Z,24.46
2019-02-20T13:20:01.490Z,24.63
2019-02-20T13:22:30.622Z,25.04
2019-02-20T13:24:59.341Z,25.41
2019-02-20T13:27:28.059Z,25.92
2019-02-20T13:29:56.917Z,25.96
2019-02-20T13:32:25.643Z,26.68
2019-02-20T13:34:54.365Z,25.97
2019-02-20T13:37:23.134Z,25.83
2019-02-20T13:39:52.202Z,26.35
2019-02-20T13:42:21.206Z,25.97
2019-02-20T13:44:50.170Z,26.02
2019-02-20T13:47:18.898Z,26.35
2019-02-20T13:49:47.626Z,26.79
2019-02-20T13:52:16.608Z,27.75
2019-02-20T13:54:45.344Z,28.37
2019-02-20T13:57:14.057Z,29.08
2019-02-20T13:59:42.944Z,28.91
2019-02-20T14:02:11.669Z,29.31
2019-02-20T14:04:40.401Z,29.01
2019-02-20T14:07:09.169Z,29.56
2019-02-20T14:09:37.913Z,29.91
2019-02-20T14:12:07.279Z,30.30
2019-02-20T14:14:36.630Z,29.63
2019-02-20T14:17:05.355Z,29.56
2019-02-20T14:19:34.077Z,30.09
2019-02-20T14:22:04.231Z,30.37
2019-02-20T14:24:32.950Z,29.84
2019-02-20T14:27:10.264Z,29.78
2019-02-20T14:29:32.407Z,30.73
2019-02-20T14:32:01.161Z,30.96
2019-02-20T14:34:29.878Z,31.16
2019-02-20T14:36:59.175Z,30.20
2019-02-20T14:39:27.901Z,30.53
2019-02-20T14:41:56.636Z,30.76
2019-02-20T14:44:25.752Z,30.09
2019-02-20T14:46:54.660Z,30.07
2019-02-20T14:49:23.389Z,29.35
2019-02-20T14:51:52.346Z,29.22
2019-02-20T14:54:21.080Z,29.50
2019-02-20T14:56:49.805Z,30.17
2019-02-20T14:59:18.604Z,30.94
2019-02-20T15:01:47.348Z,31.43
2019-02-20T15:04:16.073Z,30.95
2019-02-20T15:06:45.261Z,31.77
2019-02-20T15:09:13.989Z,32.54
2019-02-20T15:11:42.710Z,31.01
2019-02-20T15:14:11.686Z,31.72
2019-02-20T15:16:40.422Z,31.84
2019-02-20T15:19:09.421Z,31.73
2019-02-20T15:21:38.192Z,32.18
2019-02-20T15:24:06.937Z,33.16
2019-02-20T15:26:35.665Z,33.42
2019-02-20T15:29:04.637Z,32.20
2019-02-20T15:31:34.042Z,32.39
2019-02-20T15:34:04.863Z,33.23
2019-02-20T15:36:33.850Z,33.47
2019-02-20T15:39:02.584Z,33.77
2019-02-20T15:41:35.388Z,34.39
2019-02-20T15:44:04.696Z,34.28
2019-02-20T15:46:33.414Z,35.33
2019-02-20T15:49:02.338Z,35.92
2019-02-20T15:51:31.533Z,36.55
2019-02-20T15:54:00.277Z,36.22
2019-02-20T15:56:29.005Z,35.91
2019-02-20T15:58:57.785Z,36.05
2019-02-20T16:01:26.513Z,35.48
2019-02-20T16:03:55.250Z,35.29
2019-02-20T16:06:24.404Z,36.65
2019-02-20T16:08:53.110Z,37.06
2019-02-20T16:11:21.842Z,37.45
2019-02-20T16:13:50.738Z,37.90
2019-02-20T16:16:19.468Z,38.47
2019-02-20T16:18:48.200Z,39.02
2019-02-20T16:21:17.044Z,39.19
2019-02-20T16:23:45.782Z,39.71
2019-02-20T16:26:14.509Z,40.53
2019-02-20T16:28:43.405Z,41.22
2019-02-20T16:31:12.124Z,41.69
2019-02-20T16:33:40.885Z,42.80
2019-02-20T16:36:10.132Z,43.63
2019-02-20T16:38:39.192Z,44.19
2019-02-20T16:41:07.920Z,44.86
2019-02-20T16:43:36.896Z,45.11
2019-02-20T16:46:05.733Z,44.67
2019-02-20T16:48:34.455Z,45.08
2019-02-20T16:51:03.990Z,45.23
2019-02-20T16:53:32.800Z,45.08
2019-02-20T16:56:01.687Z,45.63
2019-02-20T16:58:30.549Z,45.65
2019-02-20T17:00:59.275Z,45.20
2019-02-20T17:03:28.001Z,45.22
2019-02-20T17:05:57.119Z,44.25
2019-02-20T17:08:26.289Z,45.07
2019-02-20T17:10:55.943Z,46.75
2019-02-20T17:13:24.814Z,47.72
2019-02-20T17:15:54.150Z,48.09
2019-02-20T17:18:22.907Z,47.56
2019-02-20T17:20:52.103Z,46.86
2019-02-20T17:23:20.824Z,46.67
2019-02-20T17:25:49.555Z,46.89
2019-02-20T17:28:18.426Z,47.31
2019-02-20T17:30:47.145Z,47.72
2019-02-20T17:33:15.870Z,48.18
2019-02-20T17:35:44.681Z,48.08
2019-02-20T17:38:13.818Z,48.69
2019-02-20T17:40:42.650Z,49.08
2019-02-20T17:43:11.812Z,49.44
2019-02-20T17:45:40.539Z,50.47
2019-02-20T17:48:09.268Z,51.67
2019-02-20T17:50:38.489Z,52.23
2019-02-20T17:53:07.203Z,52.76
2019-02-20T17:55:36.246Z,53.58
2019-02-20T17:58:05.383Z,54.05
2019-02-20T18:00:34.114Z,54.50
2019-02-20T18:03:02.849Z,54.75
2019-02-20T18:05:31.845Z,54.74
2019-02-20T18:08:00.560Z,55.29
2019-02-20T18:10:29.292Z,54.78
2019-02-20T18:12:58.183Z,54.13
2019-02-20T18:15:26.910Z,54.17
2019-02-20T18:17:55.662Z,54.61
2019-02-20T18:20:25.219Z,54.27
2019-02-20T18:22:54.102Z,54.19
2019-02-20T18:25:22.957Z,52.97
2019-02-20T18:27:51.738Z,52.09
2019-02-20T18:30:20.489Z,51.81
2019-02-20T18:32:49.221Z,51.08
2019-02-20T18:35:19.663Z,51.02
2019-02-20T18:37:48.380Z,51.12
2019-02-20T18:40:17.701Z,50.75
2019-02-20T18:42:46.563Z,50.57
2019-02-20T18:45:16.164Z,50.68
2019-02-20T18:47:44.921Z,51.67
2019-02-20T18:50:15.182Z,52.25
2019-02-20T18:52:44.012Z,52.53
2019-02-20T18:55:13.949Z,52.60
2019-02-20T18:57:43.250Z,52.87
2019-02-20T19:00:17.200Z,53.17
2019-02-20T19:02:45.907Z,53.27
2019-02-20T19:05:15.133Z,53.10
2019-02-20T19:07:43.969Z,53.10
2019-02-20T19:10:35.477Z,53.27
2019-02-20T19:13:12.921Z,53.44
2019-02-20T19:15:47.649Z,54.68
2019-02-20T19:18:37.253Z,55.12
2019-02-20T19:21:34.665Z,55.07
2019-02-20T19:24:15.289Z,54.92
2019-02-20T19:26:55.942Z,54.64
2019-02-20T19:29:47.072Z,54.24
2019-02-20T19:32:27.670Z,53.70
2019-02-20T19:35:26.699Z,52.80
2019-02-20T19:38:16.727Z,52.18
2019-02-20T19:41:07.985Z,51.11
2019-02-20T19:43:53.501Z,50.66
2019-02-20T19:46:45.692Z,50.42
2019-02-20T19:49:33.877Z,50.78
2019-02-20T19:52:05.582Z,50.76
2019-02-20T19:54:43.562Z,50.72
2019-02-20T19:57:21.207Z,50.38
2019-02-20T20:00:01.999Z,50.96
2019-02-20T20:02:42.735Z,51.14
2019-02-20T20:05:35.841Z,51.29
2019-02-20T20:08:16.616Z,51.36
2019-02-20T20:10:54.527Z,51.51
2019-02-20T20:13:26.166Z,51.77
2019-02-20T20:16:12.907Z,52.06
2019-02-20T20:19:13.745Z,52.88
2019-02-20T20:22:02.092Z,53.70
2019-02-20T20:24:36.612Z,55.04
2019-02-20T20:27:28.405Z,56.48
2019-02-20T20:30:11.425Z,56.70
2019-02-20T20:32:53.802Z,55.99
2019-02-20T20:35:49.607Z,56.08
2019-02-20T20:38:30.322Z,56.54
2019-02-20T20:41:20.034Z,56.28
2019-02-20T20:44:13.215Z,56.37
2019-02-20T20:46:50.577Z,56.53
2019-02-20T20:49:22.310Z,56.77
2019-02-20T20:52:13.330Z,57.21
2019-02-20T20:55:06.317Z,57.00
2019-02-20T20:57:43.986Z,57.17
2019-02-20T21:00:42.910Z,57.25
2019-02-20T21:03:14.561Z,57.53
2019-02-20T21:05:52.149Z,57.55
2019-02-20T21:08:23.798Z,57.82
2019-02-20T21:11:01.452Z,57.97
2019-02-20T21:13:53.724Z,58.12
2019-02-20T21:17:00.001Z,58.38
2019-02-20T21:19:53.971Z,58.67
2019-02-20T21:22:55.694Z,59.84
2019-02-20T21:25:36.029Z,60.92
2019-02-20T21:28:19.673Z,61.50
2019-02-20T21:31:05.653Z,62.02
2019-02-20T21:33:53.667Z,62.26
2019-02-20T21:36:40.003Z,62.40
2019-02-20T21:39:27.055Z,62.42
2019-02-20T21:41:58.698Z,62.55
2019-02-20T21:44:36.442Z,62.61
2019-02-20T21:47:08.083Z,62.46
2019-02-20T21:49:44.064Z,62.02
2019-02-20T21:52:19.990Z,62.29
2019-02-20T21:55:14.972Z,62.16
2019-02-20T21:58:04.179Z,62.18
2019-02-20T22:00:35.991Z,62.11
2019-02-20T22:03:10.315Z,61.95
2019-02-20T22:06:00.513Z,62.05
2019-02-20T22:08:46.797Z,61.98
2019-02-20T22:11:25.092Z,61.58
2019-02-20T22:14:17.840Z,61.91
2019-02-20T22:17:24.722Z,62.33
2019-02-20T22:20:14.658Z,63.06
2019-02-20T22:22:58.396Z,63.56
2019-02-20T22:25:47.445Z,63.84
2019-02-20T22:28:38.187Z,64.53
2019-02-20T22:31:35.627Z,64.80
2019-02-20T22:34:34.095Z,65.58
2019-02-20T22:37:27.028Z,66.01
2019-02-20T22:39:59.022Z,66.35
2019-02-20T22:42:30.676Z,66.19
2019-02-20T22:45:17.730Z,66.46
2019-02-20T22:47:52.258Z,66.55
2019-02-20T22:50:40.766Z,65.87
2019-02-20T22:53:12.405Z,65.48
2019-02-20T22:55:49.829Z,65.39
2019-02-20T22:58:24.397Z,65.10
2019-02-20T23:01:05.451Z,64.68
2019-02-20T23:03:52.210Z,65.22
2019-02-20T23:06:51.034Z,65.42
2019-02-20T23:09:31.710Z,65.74
2019-02-20T23:12:09.375Z,66.03
2019-02-20T23:14:56.068Z,66.26
2019-02-20T23:17:26.941Z,65.87
2019-02-20T23:19:55.723Z,65.52
2019-02-20T23:22:24.432Z,64.95
2019-02-20T23:24:53.307Z,65.27
2019-02-20T23:27:22.027Z,65.04
2019-02-20T23:29:50.746Z,64.77
2019-02-20T23:32:19.962Z,64.70
2019-02-20T23:34:48.697Z,65.12
2019-02-20T23:37:17.440Z,65.27
2019-02-20T23:39:46.726Z,65.56
2019-02-20T23:42:15.454Z,66.19
2019-02-20T23:44:44.176Z,67.21
2019-02-20T23:47:12.958Z,67.46
2019-02-20T23:49:41.687Z,67.71
2019-02-20T23:52:10.407Z,68.12
2019-02-20T23:54:39.229Z,68.67
2019-02-20T23:57:07.981Z,68.49
2019-02-20T23:59:36.703Z,68.34
